createdAt,value
2023-05-10T00:00:17.625Z,12.77
2023-05-10T00:02:47.276Z,12.73
2023-05-10T00:05:15.253Z,12.79
2023-05-10T00:07:45.834Z,12.78
2023-05-10T00:10:14.405Z,12.69
2023-05-10T00:12:42.599Z,12.77
2023-05-10T00:15:11.474Z,12.80
2023-05-10T00:17:39.444Z,12.63
2023-05-10T00:20:09.875Z,12.73
2023-05-10T00:22:37.819Z,12.74
2023-05-10T00:25:07.199Z,12.69
2023-05-10T00:27:35.168Z,12.66
2023-05-10T00:30:03.271Z,12.65
2023-05-10T00:32:31.610Z,12.64
2023-05-10T00:34:59.592Z,12.64
2023-05-10T00:37:28.929Z,12.64
2023-05-10T00:39:56.878Z,12.64
2023-05-10T00:42:24.764Z,12.68
2023-05-10T00:44:52.838Z,12.60
2023-05-10T00:47:20.952Z,12.62
2023-05-10T00:49:48.970Z,12.57
2023-05-10T00:52:17.028Z,12.65
2023-05-10T00:54:46.571Z,12.55
2023-05-10T00:57:14.530Z,12.60
2023-05-10T00:59:42.550Z,12.63
2023-05-10T01:02:10.826Z,12.59
2023-05-10T01:04:40.451Z,12.65
2023-05-10T01:07:08.804Z,12.53
2023-05-10T01:09:36.980Z,12.56
2023-05-10T01:12:08.032Z,12.65
2023-05-10T01:14:38.301Z,12.63
2023-05-10T01:17:08.133Z,12.60
2023-05-10T01:19:38.694Z,12.56
2023-05-10T01:22:43.374Z,12.60
2023-05-10T01:25:23.886Z,12.66
2023-05-10T01:28:24.123Z,12.64
2023-05-10T01:31:20.681Z,12.60
2023-05-10T01:33:57.035Z,12.65
2023-05-10T01:36:33.294Z,12.59
2023-05-10T01:39:07.590Z,12.64
2023-05-10T01:41:42.954Z,12.65
2023-05-10T01:44:22.684Z,12.43
2023-05-10T01:46:55.621Z,12.63
2023-05-10T01:49:28.542Z,12.63
2023-05-10T01:52:01.769Z,12.57
2023-05-10T01:54:31.257Z,12.46
2023-05-10T01:57:05.248Z,12.56
2023-05-10T01:59:40.295Z,12.54
2023-05-10T02:02:09.292Z,12.52
2023-05-10T02:04:40.708Z,12.55
2023-05-10T02:07:09.457Z,12.52
2023-05-10T02:09:39.143Z,12.36
2023-05-10T02:12:09.463Z,12.44
2023-05-10T02:14:39.157Z,12.48
2023-05-10T02:17:09.904Z,12.35
2023-05-10T02:19:42.767Z,12.44
2023-05-10T02:22:11.976Z,12.47
2023-05-10T02:24:42.007Z,12.42
2023-05-10T02:27:11.939Z,12.43
2023-05-10T02:29:41.080Z,12.44
2023-05-10T02:32:12.098Z,12.41
2023-05-10T02:34:43.151Z,12.45
2023-05-10T02:37:11.898Z,12.48
2023-05-10T02:39:44.747Z,12.47
2023-05-10T02:42:18.078Z,12.13
2023-05-10T02:44:50.078Z,12.03
2023-05-10T02:47:18.222Z,12.47
2023-05-10T02:49:48.172Z,12.43
2023-05-10T02:52:21.633Z,12.40
2023-05-10T02:54:54.515Z,12.24
2023-05-10T02:57:36.115Z,12.35
2023-05-10T03:00:04.767Z,12.35
2023-05-10T03:02:33.033Z,12.35
2023-05-10T03:05:02.590Z,12.30
2023-05-10T03:07:30.952Z,12.28
2023-05-10T03:09:59.085Z,12.31
2023-05-10T03:12:42.594Z,12.30
2023-05-10T03:15:16.010Z,12.30
2023-05-10T03:17:58.244Z,12.25
2023-05-10T03:20:31.472Z,12.21
2023-05-10T03:23:06.487Z,12.23
2023-05-10T03:25:35.486Z,12.25
2023-05-10T03:28:06.618Z,12.21
2023-05-10T03:30:35.935Z,12.15
2023-05-10T03:33:07.346Z,12.23
2023-05-10T03:35:36.909Z,12.20
2023-05-10T03:38:04.857Z,12.17
2023-05-10T03:40:33.362Z,12.18
2023-05-10T03:43:01.303Z,12.08
2023-05-10T03:45:29.466Z,12.20
2023-05-10T03:47:57.524Z,12.21
2023-05-10T03:50:25.671Z,12.20
2023-05-10T03:52:55.024Z,12.16
2023-05-10T03:55:23.520Z,12.17
2023-05-10T03:57:51.626Z,12.11
2023-05-10T04:00:19.794Z,12.23
2023-05-10T04:02:47.877Z,12.16
2023-05-10T04:05:15.882Z,12.16
2023-05-10T04:07:45.351Z,12.07
2023-05-10T04:10:15.043Z,12.11
2023-05-10T04:12:43.115Z,12.13
2023-05-10T04:15:11.672Z,12.11
2023-05-10T04:17:39.664Z,12.13
2023-05-10T04:20:09.396Z,12.15
2023-05-10T04:22:37.339Z,12.16
2023-05-10T04:25:05.802Z,12.14
2023-05-10T04:27:35.225Z,12.10
2023-05-10T04:30:04.408Z,12.09
2023-05-10T04:32:32.592Z,12.09
2023-05-10T04:35:00.593Z,12.09
2023-05-10T04:37:28.574Z,12.02
2023-05-10T04:39:56.537Z,12.09
2023-05-10T04:42:24.470Z,11.99
2023-05-10T04:44:54.086Z,12.11
2023-05-10T04:47:22.059Z,12.09
2023-05-10T04:49:50.015Z,12.10
2023-05-10T04:52:18.951Z,12.12
2023-05-10T04:54:46.935Z,12.11
2023-05-10T04:57:14.870Z,12.09
2023-05-10T04:59:43.565Z,12.12
2023-05-10T05:02:12.862Z,12.09
2023-05-10T05:04:40.818Z,12.09
2023-05-10T05:07:08.748Z,12.06
2023-05-10T05:09:36.757Z,12.08
2023-05-10T05:12:05.263Z,11.85
2023-05-10T05:14:33.220Z,12.09
2023-05-10T05:17:01.152Z,12.12
2023-05-10T05:19:30.436Z,12.06
2023-05-10T05:21:58.492Z,11.98
2023-05-10T05:24:26.510Z,12.01
2023-05-10T05:26:54.465Z,12.01
2023-05-10T05:29:22.405Z,12.02
2023-05-10T05:31:50.370Z,11.95
2023-05-10T05:34:18.284Z,11.96
2023-05-10T05:36:47.605Z,11.96
2023-05-10T05:39:15.654Z,11.94
2023-05-10T05:41:43.648Z,11.98
2023-05-10T05:44:11.650Z,11.92
2023-05-10T05:46:39.868Z,11.87
2023-05-10T05:49:07.787Z,11.87
2023-05-10T05:51:36.656Z,11.87
2023-05-10T05:54:05.932Z,11.80
2023-05-10T05:56:33.895Z,11.90
2023-05-10T05:59:01.836Z,11.87
2023-05-10T06:01:29.810Z,11.87
2023-05-10T06:03:57.940Z,11.92
2023-05-10T06:06:26.023Z,11.89
2023-05-10T06:08:53.960Z,11.91
2023-05-10T06:11:23.926Z,11.98
2023-05-10T06:13:52.099Z,12.05
2023-05-10T06:16:19.989Z,12.12
2023-05-10T06:18:47.922Z,12.19
2023-05-10T06:21:15.923Z,12.09
2023-05-10T06:23:43.963Z,12.33
2023-05-10T06:26:12.233Z,12.47
2023-05-10T06:28:41.884Z,12.70
2023-05-10T06:31:09.839Z,12.58
2023-05-10T06:33:37.770Z,12.53
2023-05-10T06:36:06.108Z,12.67
2023-05-10T06:38:34.403Z,12.73
2023-05-10T06:41:02.564Z,12.70
2023-05-10T06:43:30.768Z,12.55
2023-05-10T06:46:00.176Z,12.65
2023-05-10T06:48:28.163Z,12.44
2023-05-10T06:50:56.097Z,12.46
2023-05-10T06:53:23.998Z,12.39
2023-05-10T06:55:52.416Z,12.22
2023-05-10T06:58:20.309Z,12.38
2023-05-10T07:00:48.398Z,12.39
2023-05-10T07:03:18.095Z,12.49
2023-05-10T07:05:46.041Z,12.89
2023-05-10T07:08:14.463Z,13.01
2023-05-10T07:10:42.422Z,13.00
2023-05-10T07:13:10.932Z,12.89
2023-05-10T07:15:38.930Z,12.98
2023-05-10T07:18:07.646Z,12.90
2023-05-10T07:20:37.140Z,12.96
2023-05-10T07:23:05.094Z,12.81
2023-05-10T07:25:33.107Z,13.06
2023-05-10T07:28:01.042Z,13.11
2023-05-10T07:30:29.133Z,13.04
2023-05-10T07:32:57.135Z,13.02
2023-05-10T07:35:25.137Z,12.94
2023-05-10T07:37:54.470Z,13.13
2023-05-10T07:40:22.640Z,13.37
2023-05-10T07:42:50.614Z,13.56
2023-05-10T07:45:18.832Z,13.95
2023-05-10T07:47:46.857Z,14.21
2023-05-10T07:50:15.139Z,14.11
2023-05-10T07:52:43.331Z,13.92
2023-05-10T07:55:13.250Z,14.10
2023-05-10T07:57:41.384Z,14.35
2023-05-10T08:00:10.567Z,14.46
2023-05-10T08:02:38.634Z,14.34
2023-05-10T08:05:07.578Z,14.42
2023-05-10T08:07:35.633Z,14.68
2023-05-10T08:10:03.621Z,14.07
2023-05-10T08:12:32.987Z,14.19
2023-05-10T08:15:01.087Z,14.56
2023-05-10T08:17:29.064Z,14.65
2023-05-10T08:19:57.107Z,15.07
2023-05-10T08:22:25.012Z,14.99
2023-05-10T08:24:52.964Z,15.36
2023-05-10T08:27:20.898Z,15.32
2023-05-10T08:29:50.757Z,14.99
2023-05-10T08:32:18.918Z,14.84
2023-05-10T08:34:46.862Z,15.18
2023-05-10T08:37:14.854Z,15.40
2023-05-10T08:39:42.773Z,15.28
2023-05-10T08:42:11.695Z,15.25
2023-05-10T08:44:39.712Z,15.23
2023-05-10T08:47:10.692Z,15.52
2023-05-10T08:49:39.779Z,14.74
2023-05-10T08:52:09.342Z,14.53
2023-05-10T08:54:37.583Z,14.31
2023-05-10T08:57:05.936Z,14.51
2023-05-10T08:59:34.259Z,14.68
2023-05-10T09:02:04.298Z,14.55
2023-05-10T09:04:33.884Z,14.55
2023-05-10T09:07:02.250Z,14.68
2023-05-10T09:09:30.913Z,14.47
2023-05-10T09:11:59.093Z,14.46
2023-05-10T09:14:27.529Z,14.46
2023-05-10T09:16:56.686Z,14.65
2023-05-10T09:19:24.697Z,14.69
2023-05-10T09:21:54.046Z,14.47
2023-05-10T09:24:27.104Z,14.50
2023-05-10T09:26:55.086Z,14.94
2023-05-10T09:29:23.037Z,14.92
2023-05-10T09:31:53.463Z,15.06
2023-05-10T09:34:23.018Z,15.81
2023-05-10T09:36:57.335Z,15.27
2023-05-10T09:39:33.805Z,15.39
2023-05-10T09:42:04.798Z,15.81
2023-05-10T09:44:33.421Z,16.77
2023-05-10T09:47:01.466Z,16.78
2023-05-10T09:49:29.644Z,16.10
2023-05-10T09:52:09.176Z,16.63
2023-05-10T09:54:37.420Z,16.27
2023-05-10T09:57:06.086Z,16.00
2023-05-10T09:59:36.325Z,16.11
2023-05-10T10:02:04.908Z,16.30
2023-05-10T10:04:33.196Z,15.46
2023-05-10T10:07:02.766Z,15.20
2023-05-10T10:09:32.718Z,15.30
2023-05-10T10:12:01.638Z,16.37
2023-05-10T10:14:30.573Z,16.83
2023-05-10T10:19:30.276Z,16.74
2023-05-10T10:21:58.298Z,16.59
2023-05-10T10:24:26.308Z,16.03
2023-05-10T10:27:00.649Z,16.34
2023-05-10T10:29:38.467Z,16.76
2023-05-10T10:32:14.303Z,16.74
2023-05-10T10:34:42.749Z,16.61
2023-05-10T10:37:10.749Z,17.40
2023-05-10T10:39:38.711Z,16.87
2023-05-10T10:42:08.084Z,17.03
2023-05-10T10:44:39.260Z,17.64
2023-05-10T10:47:30.875Z,17.63
2023-05-10T10:50:06.362Z,17.39
2023-05-10T10:52:35.895Z,17.43
2023-05-10T10:55:07.709Z,17.38
2023-05-10T10:57:46.579Z,17.39
2023-05-10T11:00:25.780Z,17.25
2023-05-10T11:02:55.742Z,17.24
2023-05-10T11:05:38.668Z,17.38
2023-05-10T11:08:13.195Z,17.88
2023-05-10T11:10:42.165Z,17.49
2023-05-10T11:13:12.313Z,17.29
2023-05-10T11:15:41.346Z,17.55
2023-05-10T11:18:23.565Z,17.39
2023-05-10T11:20:53.505Z,16.62
2023-05-10T11:23:22.200Z,16.36
2023-05-10T11:25:51.392Z,16.54
2023-05-10T11:28:21.411Z,16.54
2023-05-10T11:30:49.597Z,16.63
2023-05-10T11:33:20.527Z,17.41
2023-05-10T11:35:49.000Z,17.94
2023-05-10T11:38:17.050Z,18.03
2023-05-10T11:40:45.700Z,18.48
2023-05-10T11:43:13.703Z,18.08
2023-05-10T11:45:43.795Z,17.93
2023-05-10T11:48:11.798Z,18.12
2023-05-10T11:50:39.891Z,17.39
2023-05-10T11:53:07.806Z,17.63
2023-05-10T11:55:36.291Z,17.84
2023-05-10T11:58:04.843Z,17.68
2023-05-10T12:00:33.687Z,17.64
2023-05-10T12:03:04.287Z,17.65
2023-05-10T12:05:37.930Z,17.41
2023-05-10T12:08:15.131Z,17.76
2023-05-10T12:10:43.438Z,16.90
2023-05-10T12:13:16.422Z,15.87
2023-05-10T12:15:45.091Z,15.36
2023-05-10T12:18:15.309Z,15.38
2023-05-10T12:20:43.568Z,15.09
2023-05-10T12:23:12.183Z,14.99
2023-05-10T12:25:40.872Z,14.73
2023-05-10T12:28:10.801Z,14.67
2023-05-10T12:30:39.821Z,14.80
2023-05-10T12:33:11.209Z,14.85
2023-05-10T12:35:51.235Z,14.77
2023-05-10T12:38:30.645Z,15.00
2023-05-10T12:41:00.340Z,14.88
2023-05-10T12:43:28.768Z,14.83
2023-05-10T12:45:56.869Z,14.68
2023-05-10T12:48:24.999Z,14.65
2023-05-10T12:50:54.354Z,14.84
2023-05-10T12:53:22.429Z,14.84
2023-05-10T12:55:50.469Z,15.14
2023-05-10T12:58:34.357Z,15.22
2023-05-10T13:01:03.990Z,15.80
2023-05-10T13:03:32.178Z,16.12
2023-05-10T13:06:01.496Z,16.36
2023-05-10T13:08:34.479Z,16.17
2023-05-10T13:11:02.903Z,16.35
2023-05-10T13:13:31.021Z,16.21
2023-05-10T13:15:59.002Z,15.78
2023-05-10T13:18:27.681Z,16.10
2023-05-10T13:20:56.803Z,15.99
2023-05-10T13:23:26.158Z,16.01
2023-05-10T13:25:54.125Z,16.23
2023-05-10T13:28:22.131Z,16.06
2023-05-10T13:30:50.102Z,15.76
2023-05-10T13:33:18.105Z,15.75
2023-05-10T13:35:46.323Z,15.34
2023-05-10T13:38:14.845Z,14.78
2023-05-10T13:40:44.273Z,15.12
2023-05-10T13:43:12.206Z,15.19
2023-05-10T13:45:40.152Z,14.85
2023-05-10T13:48:08.154Z,15.00
2023-05-10T13:50:36.179Z,15.62
2023-05-10T13:53:04.130Z,15.84
2023-05-10T13:55:32.098Z,15.57
2023-05-10T13:58:01.452Z,15.49
2023-05-10T14:00:29.457Z,15.65
2023-05-10T14:02:57.610Z,15.76
2023-05-10T14:05:26.699Z,15.52
2023-05-10T14:07:54.891Z,15.59
2023-05-10T14:10:22.900Z,15.63
2023-05-10T14:12:51.897Z,15.89
2023-05-10T14:15:21.291Z,16.04
2023-05-10T14:17:49.388Z,16.03
2023-05-10T14:20:17.498Z,16.87
2023-05-10T14:22:45.465Z,17.52
2023-05-10T14:25:13.793Z,17.51
2023-05-10T14:27:41.744Z,16.81
2023-05-10T14:30:10.714Z,16.91
2023-05-10T14:32:40.101Z,16.92
2023-05-10T14:35:10.712Z,16.49
2023-05-10T14:37:40.361Z,16.22
2023-05-10T14:40:10.326Z,16.22
2023-05-10T14:42:38.310Z,16.68
2023-05-10T14:45:07.363Z,17.49
2023-05-10T14:47:35.369Z,17.37
2023-05-10T14:50:04.948Z,17.20
2023-05-10T14:52:34.276Z,17.69
2023-05-10T14:55:02.517Z,17.97
2023-05-10T14:57:33.796Z,17.51
2023-05-10T15:00:03.042Z,16.85
2023-05-10T15:02:31.495Z,16.49
2023-05-10T15:04:59.699Z,16.91
2023-05-10T15:07:29.543Z,16.28
2023-05-10T15:09:57.540Z,16.63
2023-05-10T15:12:25.471Z,16.16
2023-05-10T15:14:53.421Z,16.09
2023-05-10T15:17:21.331Z,17.25
2023-05-10T15:19:50.252Z,17.87
2023-05-10T15:22:18.164Z,17.11
2023-05-10T15:24:47.546Z,16.29
2023-05-10T15:27:15.550Z,16.09
2023-05-10T15:29:43.536Z,16.27
2023-05-10T15:32:11.513Z,15.85
2023-05-10T15:34:39.444Z,15.80
2023-05-10T15:37:07.413Z,16.15
2023-05-10T15:39:35.330Z,16.22
2023-05-10T15:42:05.113Z,16.25
2023-05-10T15:44:34.624Z,17.03
2023-05-10T15:47:02.745Z,17.61
2023-05-10T15:49:30.774Z,17.54
2023-05-10T15:51:58.745Z,17.36
2023-05-10T15:54:26.906Z,16.66
2023-05-10T15:56:55.296Z,16.75
2023-05-10T15:59:24.646Z,17.03
2023-05-10T16:01:53.013Z,16.91
2023-05-10T16:04:21.088Z,17.65
2023-05-10T16:06:49.048Z,17.06
2023-05-10T16:09:17.189Z,16.43
2023-05-10T16:11:46.450Z,16.29
2023-05-10T16:14:14.475Z,16.43
2023-05-10T16:16:44.430Z,16.43
2023-05-10T16:19:12.364Z,17.05
2023-05-10T16:21:40.318Z,17.29
2023-05-10T16:24:08.511Z,17.34
2023-05-10T16:26:40.993Z,16.55
2023-05-10T16:29:09.319Z,16.47
2023-05-10T16:31:37.377Z,16.25
2023-05-10T16:34:06.804Z,15.84
2023-05-10T16:36:35.326Z,15.81
2023-05-10T16:39:03.978Z,15.84
2023-05-10T16:41:34.499Z,15.78
2023-05-10T16:44:02.473Z,15.48
2023-05-10T16:46:30.494Z,15.30
2023-05-10T16:48:59.870Z,15.41
2023-05-10T16:51:29.395Z,15.66
2023-05-10T16:53:57.369Z,16.19
2023-05-10T16:56:25.387Z,16.25
2023-05-10T16:58:54.095Z,16.55
2023-05-10T17:01:24.305Z,16.24
2023-05-10T17:03:53.769Z,16.24
2023-05-10T17:06:21.948Z,16.06
2023-05-10T17:08:51.788Z,16.08
2023-05-10T17:11:21.955Z,15.72
2023-05-10T17:13:49.934Z,15.73
2023-05-10T17:16:17.988Z,15.52
2023-05-10T17:18:46.642Z,15.78
2023-05-10T17:21:14.597Z,15.53
2023-05-10T17:23:42.560Z,15.35
2023-05-10T17:26:11.939Z,15.57
2023-05-10T17:28:39.931Z,15.60
2023-05-10T17:31:08.361Z,15.50
2023-05-10T17:33:36.308Z,15.54
2023-05-10T17:36:04.279Z,15.40
2023-05-10T17:38:32.325Z,15.15
2023-05-10T17:41:00.246Z,15.33
2023-05-10T17:43:29.616Z,15.40
2023-05-10T17:45:57.561Z,15.04
2023-05-10T17:48:25.573Z,14.88
2023-05-10T17:50:53.567Z,15.03
2023-05-10T17:53:21.563Z,15.12
2023-05-10T17:55:49.748Z,15.15
2023-05-10T17:58:17.719Z,14.97
2023-05-10T18:00:47.717Z,14.96
2023-05-10T18:03:15.705Z,14.73
2023-05-10T18:05:43.778Z,14.66
2023-05-10T18:08:11.759Z,14.71
2023-05-10T18:10:41.315Z,14.41
2023-05-10T18:13:09.640Z,14.23
2023-05-10T18:15:37.663Z,14.01
2023-05-10T18:18:07.235Z,13.99
2023-05-10T18:20:35.186Z,13.76
2023-05-10T18:23:03.190Z,13.67
2023-05-10T18:25:31.237Z,13.57
2023-05-10T18:27:59.178Z,13.54
2023-05-10T18:30:27.173Z,13.61
2023-05-10T18:32:55.395Z,13.50
2023-05-10T18:35:24.764Z,13.34
2023-05-10T18:37:53.219Z,13.20
2023-05-10T18:40:21.289Z,13.30
2023-05-10T18:42:50.229Z,13.21
2023-05-10T18:45:18.488Z,13.19
2023-05-10T18:47:46.766Z,13.28
2023-05-10T18:50:17.073Z,13.10
2023-05-10T18:52:46.646Z,13.00
2023-05-10T18:55:14.836Z,12.86
2023-05-10T18:57:43.000Z,12.88
2023-05-10T19:00:12.800Z,12.80
2023-05-10T19:02:41.311Z,12.79
2023-05-10T19:05:10.305Z,12.68
2023-05-10T19:07:38.408Z,12.79
2023-05-10T19:10:08.838Z,12.79
2023-05-10T19:12:37.575Z,13.02
2023-05-10T19:15:06.313Z,13.06
2023-05-10T19:17:35.382Z,12.86
2023-05-10T19:20:04.169Z,12.90
2023-05-10T19:22:45.380Z,12.82
2023-05-10T19:25:21.503Z,12.73
2023-05-10T19:27:49.543Z,12.83
2023-05-10T19:30:17.490Z,12.71
2023-05-10T19:32:45.519Z,12.91
2023-05-10T19:35:15.070Z,12.78
2023-05-10T19:37:46.069Z,12.80
2023-05-10T19:40:15.681Z,12.82
2023-05-10T19:42:45.117Z,12.76
2023-05-10T19:45:15.806Z,12.73
2023-05-10T19:47:44.273Z,12.74
2023-05-10T19:50:13.931Z,12.69
2023-05-10T19:52:41.948Z,12.63
2023-05-10T19:55:10.167Z,12.63
2023-05-10T19:57:38.191Z,12.48
2023-05-10T20:00:09.024Z,12.54
2023-05-10T20:02:37.005Z,12.46
2023-05-10T20:05:05.273Z,12.41
2023-05-10T20:07:33.220Z,12.40
2023-05-10T20:10:01.235Z,12.21
2023-05-10T20:12:29.213Z,12.29
2023-05-10T20:14:57.261Z,12.36
2023-05-10T20:17:26.816Z,12.45
2023-05-10T20:19:54.869Z,12.43
2023-05-10T20:22:22.785Z,12.34
2023-05-10T20:24:50.780Z,12.20
2023-05-10T20:27:21.089Z,12.32
2023-05-10T20:29:49.070Z,12.22
2023-05-10T20:32:17.055Z,11.99
2023-05-10T20:34:46.666Z,12.18
2023-05-10T20:37:14.636Z,12.16
2023-05-10T20:39:42.619Z,12.17
2023-05-10T20:42:10.964Z,11.96
2023-05-10T20:44:38.930Z,12.11
2023-05-10T20:47:07.094Z,12.05
2023-05-10T20:49:36.533Z,12.10
2023-05-10T20:52:06.469Z,12.10
2023-05-10T20:54:34.466Z,12.13
2023-05-10T20:57:02.879Z,12.00
2023-05-10T20:59:30.858Z,11.69
2023-05-10T21:01:59.799Z,11.87
2023-05-10T21:04:28.621Z,11.91
2023-05-10T21:06:57.393Z,11.83
2023-05-10T21:09:27.532Z,11.86
2023-05-10T21:11:56.266Z,11.47
2023-05-10T21:14:24.973Z,11.89
2023-05-10T21:16:54.795Z,11.92
2023-05-10T21:19:23.449Z,11.75
2023-05-10T21:21:52.446Z,11.77
2023-05-10T21:24:21.154Z,11.74
2023-05-10T21:26:51.354Z,11.86
2023-05-10T21:29:20.210Z,11.63
2023-05-10T21:31:49.072Z,11.61
2023-05-10T21:34:18.370Z,11.67
2023-05-10T21:36:48.746Z,11.71
2023-05-10T21:39:17.404Z,11.53
2023-05-10T21:41:46.094Z,11.53
2023-05-10T21:44:16.350Z,11.49
2023-05-10T21:46:45.600Z,11.41
2023-05-10T21:49:14.266Z,11.34
2023-05-10T21:51:42.941Z,11.35
2023-05-10T21:54:11.710Z,11.40
2023-05-10T21:56:40.416Z,11.30
2023-05-10T21:59:09.146Z,11.29
2023-05-10T22:01:39.348Z,11.10
2023-05-10T22:04:08.136Z,11.20
2023-05-10T22:06:36.871Z,11.15
2023-05-10T22:09:05.928Z,11.19
2023-05-10T22:11:34.323Z,11.15
2023-05-10T22:14:02.294Z,11.13
2023-05-10T22:16:30.274Z,11.12
2023-05-10T22:18:59.718Z,11.09
2023-05-10T22:21:27.717Z,11.10
2023-05-10T22:23:55.691Z,11.15
2023-05-10T22:26:23.654Z,11.10
2023-05-10T22:28:51.565Z,11.01
2023-05-10T22:31:20.167Z,11.06
2023-05-10T22:33:49.073Z,11.12
2023-05-10T22:36:19.225Z,11.08
2023-05-10T22:38:47.933Z,11.13
2023-05-10T22:41:16.698Z,11.10
2023-05-10T22:43:45.952Z,11.12
2023-05-10T22:46:14.799Z,11.20
2023-05-10T22:48:44.799Z,11.16
2023-05-10T22:51:13.490Z,11.15
2023-05-10T22:53:43.618Z,11.11
2023-05-10T22:56:12.404Z,11.15
2023-05-10T22:58:41.142Z,11.06
2023-05-10T23:01:10.057Z,11.07
2023-05-10T23:03:39.345Z,11.02
2023-05-10T23:06:08.858Z,11.04
2023-05-10T23:08:38.378Z,11.04
2023-05-10T23:11:09.283Z,11.08
2023-05-10T23:13:38.323Z,10.94
2023-05-10T23:16:08.330Z,11.10
2023-05-10T23:18:37.354Z,10.84
2023-05-10T23:21:06.421Z,10.91
2023-05-10T23:23:37.953Z,11.00
2023-05-10T23:26:11.034Z,11.03
2023-05-10T23:28:40.132Z,10.95
2023-05-10T23:31:09.081Z,10.98
2023-05-10T23:33:37.285Z,10.96
2023-05-10T23:36:05.439Z,10.91
2023-05-10T23:38:33.455Z,10.95
2023-05-10T23:41:01.524Z,10.89
2023-05-10T23:43:31.258Z,10.88
2023-05-10T23:45:59.807Z,10.82
2023-05-10T23:48:27.841Z,10.83
2023-05-10T23:50:55.842Z,10.90
2023-05-10T23:53:23.832Z,10.89
2023-05-10T23:55:51.800Z,10.87
2023-05-10T23:58:19.782Z,10.83
